Time;durP1;ratioP1;P1;durP2;ratioP2;P2;SDS_P1;SDS_P2;PMS_P1;PMS_P2;Temp;Humidity;BMP_temperature;BMP_pressure;BME280_temperature;BME280_humidity;BME280_pressure;Samples;Min_cycle;Max_cycle;Signal;HPM_P1;HPM_P2
2021/05/02 00:00:46;;;;;;;8.80;6.85;;;;;;;;;;5056540;28;20228;-82
2021/05/02 00:03:13;;;;;;;10.32;8.30;;;;;;;;;;5056855;28;20198;-82
2021/05/02 00:05:39;;;;;;;9.38;6.40;;;;;;;;;;5056090;28;20585;-82
2021/05/02 00:08:07;;;;;;;8.65;7.78;;;;;;;;;;5056297;28;20208;-83
2021/05/02 00:10:35;;;;;;;7.65;6.43;;;;;;;;;;5056387;28;20222;-81
2021/05/02 00:13:04;;;;;;;7.43;6.35;;;;;;;;;;5056690;28;20222;-82
2021/05/02 00:15:32;;;;;;;8.40;7.50;;;;;;;;;;5058973;28;20567;-82
2021/05/02 00:17:59;;;;;;;8.63;6.60;;;;;;;;;;5059212;28;20210;-82
2021/05/02 00:20:27;;;;;;;8.55;7.35;;;;;;;;;;5056156;28;20229;-82
2021/05/02 00:22:57;;;;;;;7.85;7.07;;;;;;;;;;5055223;28;20201;-82
2021/05/02 00:25:26;;;;;;;8.50;7.47;;;;;;;;;;5055847;28;20251;-81
2021/05/02 00:27:54;;;;;;;8.20;7.10;;;;;;;;;;5056309;28;20205;-82
2021/05/02 00:30:24;;;;;;;11.77;6.93;;;;;;;;;;5056237;28;20218;-82
2021/05/02 00:32:54;;;;;;;9.43;7.43;;;;;;;;;;5056153;28;20229;-82
2021/05/02 00:35:25;;;;;;;8.30;7.47;;;;;;;;;;5055197;28;20589;-82
2021/05/02 00:37:53;;;;;;;9.10;8.18;;;;;;;;;;5055642;28;20201;-82
2021/05/02 00:40:26;;;;;;;7.80;6.70;;;;;;;;;;5055764;28;20225;-82
2021/05/02 00:42:54;;;;;;;8.48;7.68;;;;;;;;;;5055931;28;20201;-82
2021/05/02 00:45:25;;;;;;;8.07;7.28;;;;;;;;;;5055312;28;20205;-82
2021/05/02 00:47:58;;;;;;;9.30;7.50;;;;;;;;;;5055468;28;20198;-82
2021/05/02 00:50:29;;;;;;;7.10;6.40;;;;;;;;;;5054942;28;20291;-82
2021/05/02 00:53:22;;;;;;;7.75;6.95;;;;;;;;;;5056106;28;20222;-82
2021/05/02 00:55:54;;;;;;;9.00;7.05;;;;;;;;;;5055180;28;20678;-81
2021/05/02 00:58:32;;;;;;;11.52;7.15;;;;;;;;;;5055949;28;20570;-81
2021/05/02 01:01:01;;;;;;;8.45;7.65;;;;;;;;;;5055492;28;20444;-82
2021/05/02 01:03:33;;;;;;;8.45;7.20;;;;;;;;;;5056009;28;20193;-82
2021/05/02 01:06:07;;;;;;;8.10;6.80;;;;;;;;;;5054780;28;20201;-81
2021/05/02 01:08:36;;;;;;;8.85;7.93;;;;;;;;;;5055444;28;20197;-81
2021/05/02 01:11:06;;;;;;;8.38;7.32;;;;;;;;;;5055344;28;20221;-81
2021/05/02 01:13:37;;;;;;;8.63;7.70;;;;;;;;;;5054997;28;20229;-82
2021/05/02 01:16:06;;;;;;;8.93;7.07;;;;;;;;;;5055061;28;20209;-82
2021/05/02 01:18:33;;;;;;;9.13;8.32;;;;;;;;;;5055519;28;20201;-82
2021/05/02 01:21:00;;;;;;;8.15;7.45;;;;;;;;;;5054883;28;20229;-81
2021/05/02 01:23:30;;;;;;;8.27;7.47;;;;;;;;;;5055257;28;20205;-82
2021/05/02 01:25:59;;;;;;;8.77;7.88;;;;;;;;;;5055149;28;20236;-82
2021/05/02 01:28:27;;;;;;;8.80;7.93;;;;;;;;;;5055642;28;20543;-83
2021/05/02 01:30:55;;;;;;;8.73;7.22;;;;;;;;;;5055307;28;20233;-83
2021/05/02 01:33:22;;;;;;;8.30;7.50;;;;;;;;;;5055708;28;20229;-83
2021/05/02 01:35:49;;;;;;;8.63;7.72;;;;;;;;;;5054496;28;20206;-82
2021/05/02 01:38:16;;;;;;;7.82;7.13;;;;;;;;;;5055241;28;20690;-82
2021/05/02 01:40:44;;;;;;;9.20;8.25;;;;;;;;;;5055106;28;20240;-83
2021/05/02 01:43:11;;;;;;;9.95;7.35;;;;;;;;;;5054295;28;20202;-83
2021/05/02 01:45:38;;;;;;;8.75;7.65;;;;;;;;;;5055151;28;20202;-83
2021/05/02 01:48:07;;;;;;;7.72;7.00;;;;;;;;;;5054317;28;20209;-82
2021/05/02 01:50:42;;;;;;;8.95;7.90;;;;;;;;;;5054715;28;20228;-82
2021/05/02 01:53:08;;;;;;;9.18;8.23;;;;;;;;;;5054698;28;20225;-83
2021/05/02 01:55:36;;;;;;;8.93;7.80;;;;;;;;;;5054583;28;20197;-82
2021/05/02 01:58:03;;;;;;;8.48;7.65;;;;;;;;;;5054952;28;20190;-83
2021/05/02 02:00:46;;;;;;;8.88;7.93;;;;;;;;;;5054499;28;20233;-82
2021/05/02 02:03:15;;;;;;;9.57;7.70;;;;;;;;;;5053407;28;20669;-83
2021/05/02 02:05:42;;;;;;;9.18;8.25;;;;;;;;;;5053823;28;20217;-82
2021/05/02 02:08:10;;;;;;;9.18;8.27;;;;;;;;;;5054048;28;20259;-83
2021/05/02 02:10:38;;;;;;;7.88;7.18;;;;;;;;;;5053615;28;20225;-83
2021/05/02 02:13:08;;;;;;;9.90;8.93;;;;;;;;;;5054106;28;20267;-83
2021/05/02 02:15:35;;;;;;;9.43;8.50;;;;;;;;;;5054866;28;20178;-82
2021/05/02 02:18:02;;;;;;;9.55;8.55;;;;;;;;;;5054417;28;20201;-82
2021/05/02 02:20:31;;;;;;;10.30;8.73;;;;;;;;;;5055459;28;20218;-83
2021/05/02 02:23:06;;;;;;;9.15;8.02;;;;;;;;;;5055185;28;20569;-82
2021/05/02 02:25:40;;;;;;;7.53;6.80;;;;;;;;;;5054087;28;20212;-82
2021/05/02 02:28:13;;;;;;;8.93;8.02;;;;;;;;;;5054474;28;20197;-82
2021/05/02 02:30:43;;;;;;;8.10;7.03;;;;;;;;;;5054442;28;20236;-83
2021/05/02 02:33:10;;;;;;;9.05;7.97;;;;;;;;;;5054459;28;20294;-82
2021/05/02 02:35:44;;;;;;;8.65;7.85;;;;;;;;;;5054471;28;20202;-83
2021/05/02 02:38:11;;;;;;;9.35;8.48;;;;;;;;;;5054825;28;20201;-82
2021/05/02 02:40:39;;;;;;;9.55;8.55;;;;;;;;;;5054460;28;20316;-83
2021/05/02 02:43:07;;;;;;;8.63;7.72;;;;;;;;;;5054858;28;20202;-83
2021/05/02 02:45:37;;;;;;;9.02;8.20;;;;;;;;;;5054632;28;20193;-83
2021/05/02 02:48:06;;;;;;;8.77;7.88;;;;;;;;;;5054801;28;20198;-83
2021/05/02 02:50:34;;;;;;;10.50;8.98;;;;;;;;;;5054168;28;20225;-83
2021/05/02 02:53:06;;;;;;;9.02;8.13;;;;;;;;;;5054654;28;20229;-82
2021/05/02 02:55:37;;;;;;;8.70;7.90;;;;;;;;;;5053813;28;20201;-82
2021/05/02 02:58:07;;;;;;;9.13;8.30;;;;;;;;;;5054578;28;20267;-82
2021/05/02 03:00:36;;;;;;;9.52;8.52;;;;;;;;;;5053890;28;20233;-82
2021/05/02 03:03:08;;;;;;;10.52;8.00;;;;;;;;;;5054060;28;20197;-82
2021/05/02 03:05:36;;;;;;;8.20;7.40;;;;;;;;;;5054271;28;20205;-83
2021/05/02 03:08:05;;;;;;;9.35;8.43;;;;;;;;;;5053619;28;20201;-82
2021/05/02 03:10:32;;;;;;;9.65;8.65;;;;;;;;;;5054402;28;20217;-83
2021/05/02 03:12:59;;;;;;;9.30;8.40;;;;;;;;;;5054436;28;20222;-82
2021/05/02 03:15:27;;;;;;;9.43;8.52;;;;;;;;;;5058206;28;20581;-82
2021/05/02 03:18:04;;;;;;;9.20;8.23;;;;;;;;;;5059007;28;20209;-82
2021/05/02 03:20:35;;;;;;;9.25;8.35;;;;;;;;;;5057684;28;20739;-82
2021/05/02 03:23:08;;;;;;;10.40;8.38;;;;;;;;;;5058051;28;20206;-82
2021/05/02 03:25:36;;;;;;;11.55;9.32;;;;;;;;;;5058138;28;20197;-82
2021/05/02 03:28:07;;;;;;;10.07;9.07;;;;;;;;;;5058078;28;20205;-82
2021/05/02 03:30:35;;;;;;;9.48;8.45;;;;;;;;;;5058143;28;20593;-82
2021/05/02 03:33:05;;;;;;;9.05;8.15;;;;;;;;;;5057363;28;20222;-83
2021/05/02 03:35:34;;;;;;;10.73;9.43;;;;;;;;;;5057976;28;20213;-82
2021/05/02 03:38:16;;;;;;;9.95;8.82;;;;;;;;;;5058165;28;20216;-82
2021/05/02 03:40:44;;;;;;;10.57;9.57;;;;;;;;;;5058192;28;20528;-82
2021/05/02 03:43:11;;;;;;;10.63;9.50;;;;;;;;;;5057842;28;20205;-83
2021/05/02 03:45:39;;;;;;;11.55;9.88;;;;;;;;;;5058412;28;20202;-82
2021/05/02 03:48:06;;;;;;;10.02;9.02;;;;;;;;;;5059674;28;20217;-82
2021/05/02 03:50:33;;;;;;;11.07;9.88;;;;;;;;;;5062610;28;20221;-81
2021/05/02 03:53:00;;;;;;;10.20;9.10;;;;;;;;;;5061818;28;20227;-82
2021/05/02 03:55:27;;;;;;;10.68;9.73;;;;;;;;;;5062980;28;20201;-82
2021/05/02 03:57:54;;;;;;;9.25;8.35;;;;;;;;;;5063986;28;20212;-82
2021/05/02 04:00:21;;;;;;;11.05;10.02;;;;;;;;;;5065701;28;20238;-82
2021/05/02 04:02:48;;;;;;;11.55;10.35;;;;;;;;;;5064752;28;20194;-82
2021/05/02 04:05:15;;;;;;;10.73;9.43;;;;;;;;;;5063279;28;20209;-82
2021/05/02 04:07:42;;;;;;;10.45;9.43;;;;;;;;;;5061624;28;20202;-82
2021/05/02 04:10:10;;;;;;;13.73;11.40;;;;;;;;;;5056508;28;20222;-82
2021/05/02 04:12:36;;;;;;;11.88;10.52;;;;;;;;;;5056802;28;20259;-83
2021/05/02 04:15:04;;;;;;;12.60;11.30;;;;;;;;;;5056368;28;20676;-82
2021/05/02 04:17:31;;;;;;;12.50;11.27;;;;;;;;;;5056603;28;20263;-82
2021/05/02 04:19:59;;;;;;;12.88;11.68;;;;;;;;;;5057250;28;20251;-82
2021/05/02 04:22:30;;;;;;;12.38;11.15;;;;;;;;;;5056627;28;20596;-82
2021/05/02 04:24:57;;;;;;;14.05;11.90;;;;;;;;;;5055636;28;20224;-82
2021/05/02 04:27:24;;;;;;;11.93;10.80;;;;;;;;;;5056035;28;20209;-83
2021/05/02 04:29:51;;;;;;;14.18;12.60;;;;;;;;;;5056166;28;20205;-82
2021/05/02 04:32:18;;;;;;;14.27;12.85;;;;;;;;;;5057133;28;20196;-82
2021/05/02 04:34:45;;;;;;;14.13;12.68;;;;;;;;;;5055760;28;20232;-82
2021/05/02 04:37:13;;;;;;;14.32;12.75;;;;;;;;;;5056347;28;20212;-82
2021/05/02 04:39:40;;;;;;;15.05;11.77;;;;;;;;;;5055917;28;20205;-82
2021/05/02 04:42:07;;;;;;;13.75;12.00;;;;;;;;;;5055926;28;20733;-82
2021/05/02 04:44:34;;;;;;;15.93;11.45;;;;;;;;;;5056150;28;20205;-82
2021/05/02 04:47:01;;;;;;;13.75;11.82;;;;;;;;;;5055956;28;20655;-82
2021/05/02 04:49:28;;;;;;;13.68;11.73;;;;;;;;;;5055663;28;20201;-83
2021/05/02 04:51:55;;;;;;;18.25;13.23;;;;;;;;;;5056248;28;20226;-82
2021/05/02 04:54:22;;;;;;;14.93;12.75;;;;;;;;;;5055942;28;20225;-82
2021/05/02 04:56:50;;;;;;;16.33;12.68;;;;;;;;;;5055250;28;20212;-83
2021/05/02 04:59:16;;;;;;;13.80;12.32;;;;;;;;;;5056501;28;20206;-82
2021/05/02 05:01:44;;;;;;;14.77;11.65;;;;;;;;;;5056139;28;20241;-82
2021/05/02 05:04:13;;;;;;;15.15;13.32;;;;;;;;;;5055590;28;20201;-82
2021/05/02 05:06:40;;;;;;;15.32;13.23;;;;;;;;;;5055547;28;20288;-82
2021/05/02 05:09:07;;;;;;;15.80;12.98;;;;;;;;;;5055698;28;20202;-82
2021/05/02 05:11:36;;;;;;;15.02;12.15;;;;;;;;;;5055393;28;20595;-82
2021/05/02 05:14:03;;;;;;;15.65;14.02;;;;;;;;;;5055883;28;20234;-82
2021/05/02 05:16:30;;;;;;;17.63;12.55;;;;;;;;;;5055674;28;20584;-82
2021/05/02 05:18:57;;;;;;;14.43;12.95;;;;;;;;;;5055820;28;20220;-82
2021/05/02 05:21:24;;;;;;;14.07;12.68;;;;;;;;;;5054991;28;20221;-82
2021/05/02 05:23:51;;;;;;;14.32;12.68;;;;;;;;;;5055808;28;20201;-83
2021/05/02 05:26:17;;;;;;;16.00;13.10;;;;;;;;;;5054719;28;20706;-82
2021/05/02 05:28:45;;;;;;;14.05;12.32;;;;;;;;;;5055911;28;20216;-82
2021/05/02 05:31:12;;;;;;;14.63;13.05;;;;;;;;;;5055535;28;20218;-82
2021/05/02 05:33:39;;;;;;;14.25;12.43;;;;;;;;;;5055022;28;20221;-82
2021/05/02 05:36:07;;;;;;;13.25;11.55;;;;;;;;;;5054815;28;20713;-82
2021/05/02 05:38:33;;;;;;;14.50;12.27;;;;;;;;;;5055974;28;20308;-82
2021/05/02 05:41:00;;;;;;;15.40;13.73;;;;;;;;;;5055280;28;20232;-82
2021/05/02 05:43:27;;;;;;;13.07;11.60;;;;;;;;;;5055076;28;20206;-82
2021/05/02 05:45:55;;;;;;;15.07;13.57;;;;;;;;;;5054951;28;20201;-82
2021/05/02 05:48:21;;;;;;;14.82;11.82;;;;;;;;;;5054921;28;20280;-82
2021/05/02 05:50:49;;;;;;;14.57;12.77;;;;;;;;;;5055181;28;20224;-82
2021/05/02 05:53:16;;;;;;;14.15;11.95;;;;;;;;;;5055397;28;20695;-82
2021/05/02 05:55:44;;;;;;;12.13;10.88;;;;;;;;;;5054145;28;20258;-82
2021/05/02 05:58:11;;;;;;;15.20;11.57;;;;;;;;;;5054526;28;20281;-82
2021/05/02 06:00:37;;;;;;;12.93;11.52;;;;;;;;;;5054541;28;20620;-82
2021/05/02 06:03:05;;;;;;;12.05;10.65;;;;;;;;;;5054648;28;20201;-82
2021/05/02 06:05:32;;;;;;;12.82;11.35;;;;;;;;;;5054649;28;20208;-82
2021/05/02 06:07:59;;;;;;;13.13;10.90;;;;;;;;;;5054683;28;20201;-82
2021/05/02 06:10:26;;;;;;;13.73;11.35;;;;;;;;;;5055078;28;20233;-82
2021/05/02 06:12:55;;;;;;;13.30;11.70;;;;;;;;;;5054576;28;20201;-82
2021/05/02 06:15:22;;;;;;;12.02;10.88;;;;;;;;;;5054119;28;20221;-82
2021/05/02 06:17:49;;;;;;;12.35;11.05;;;;;;;;;;5054796;28;20206;-83
2021/05/02 06:20:16;;;;;;;11.95;10.35;;;;;;;;;;5055083;28;20232;-82
2021/05/02 06:22:44;;;;;;;9.68;8.68;;;;;;;;;;5054725;28;20851;-82
2021/05/02 06:25:12;;;;;;;12.30;11.02;;;;;;;;;;5054510;28;20228;-82
2021/05/02 06:27:39;;;;;;;11.32;10.13;;;;;;;;;;5054890;28;20631;-83
2021/05/02 06:30:07;;;;;;;10.43;9.35;;;;;;;;;;5054513;28;20631;-83
2021/05/02 06:32:36;;;;;;;10.27;9.20;;;;;;;;;;5054145;28;20663;-83
2021/05/02 06:35:03;;;;;;;11.05;9.93;;;;;;;;;;5054092;28;20229;-84
2021/05/02 06:37:30;;;;;;;10.23;9.23;;;;;;;;;;5054206;28;20197;-83
2021/05/02 06:39:58;;;;;;;9.80;8.80;;;;;;;;;;5057297;28;20208;-83
2021/05/02 06:42:25;;;;;;;9.60;8.60;;;;;;;;;;5055457;28;20194;-84
2021/05/02 06:44:52;;;;;;;10.85;9.68;;;;;;;;;;5054648;28;20209;-83
2021/05/02 06:47:19;;;;;;;9.10;8.27;;;;;;;;;;5053845;28;20671;-83
2021/05/02 06:49:46;;;;;;;8.75;7.85;;;;;;;;;;5056822;28;20203;-83
2021/05/02 06:52:13;;;;;;;8.90;8.00;;;;;;;;;;5058502;28;20256;-83
2021/05/02 06:54:40;;;;;;;8.55;7.65;;;;;;;;;;5057941;28;20271;-83
2021/05/02 06:57:07;;;;;;;9.20;7.22;;;;;;;;;;5056838;28;20201;-82
2021/05/02 06:59:34;;;;;;;7.55;6.28;;;;;;;;;;5057358;28;20201;-83
2021/05/02 07:02:01;;;;;;;6.40;5.80;;;;;;;;;;5056285;28;20707;-83
2021/05/02 07:04:31;;;;;;;7.53;6.07;;;;;;;;;;5057296;28;20246;-83
2021/05/02 07:06:58;;;;;;;5.32;4.80;;;;;;;;;;5057403;28;20647;-83
2021/05/02 07:09:25;;;;;;;5.65;5.10;;;;;;;;;;5056696;28;20213;-83
2021/05/02 07:11:53;;;;;;;6.70;5.55;;;;;;;;;;5056795;28;20229;-83
2021/05/02 07:14:20;;;;;;;5.78;5.03;;;;;;;;;;5056016;28;20226;-83
2021/05/02 07:16:47;;;;;;;5.22;4.57;;;;;;;;;;5055481;28;20208;-83
2021/05/02 07:19:14;;;;;;;5.00;4.50;;;;;;;;;;5056015;28;20201;-82
2021/05/02 07:21:42;;;;;;;4.22;3.90;;;;;;;;;;5056583;28;20319;-82
2021/05/02 07:24:10;;;;;;;5.75;4.53;;;;;;;;;;5058263;28;20197;-82
2021/05/02 07:26:36;;;;;;;5.80;4.40;;;;;;;;;;5058821;28;20204;-83
2021/05/02 07:29:04;;;;;;;4.45;4.05;;;;;;;;;;5057705;28;20210;-82
2021/05/02 07:31:31;;;;;;;4.47;3.95;;;;;;;;;;5057467;28;20228;-82
2021/05/02 07:33:58;;;;;;;5.35;4.85;;;;;;;;;;5057977;28;20287;-82
2021/05/02 07:36:25;;;;;;;4.50;4.10;;;;;;;;;;5057260;28;20204;-82
2021/05/02 07:38:52;;;;;;;5.25;4.85;;;;;;;;;;5057354;28;20209;-82
2021/05/02 07:41:18;;;;;;;4.57;4.13;;;;;;;;;;5057512;28;20597;-82
2021/05/02 07:43:45;;;;;;;4.53;4.13;;;;;;;;;;5057897;28;20220;-82
2021/05/02 07:46:13;;;;;;;4.20;3.85;;;;;;;;;;5057517;28;20201;-83
2021/05/02 07:48:40;;;;;;;4.50;3.65;;;;;;;;;;5056926;28;20212;-83
2021/05/02 07:51:07;;;;;;;6.93;4.20;;;;;;;;;;5056920;28;20641;-81
2021/05/02 07:53:33;;;;;;;3.75;3.45;;;;;;;;;;5057267;28;20208;-82
2021/05/02 07:56:00;;;;;;;4.93;4.43;;;;;;;;;;5057300;28;20240;-82
2021/05/02 07:58:27;;;;;;;4.22;3.83;;;;;;;;;;5057308;28;20217;-83
2021/05/02 08:00:54;;;;;;;4.72;3.90;;;;;;;;;;5056397;28;20520;-82
2021/05/02 08:03:22;;;;;;;4.78;4.15;;;;;;;;;;5057154;28;20296;-82
2021/05/02 08:05:49;;;;;;;5.63;3.65;;;;;;;;;;5057888;28;20197;-83
2021/05/02 08:08:16;;;;;;;3.42;3.13;;;;;;;;;;5058168;28;20288;-82
2021/05/02 08:10:43;;;;;;;4.35;4.00;;;;;;;;;;5057838;28;20233;-82
2021/05/02 08:13:10;;;;;;;6.53;4.90;;;;;;;;;;5057882;28;20213;-82
2021/05/02 08:15:37;;;;;;;4.72;4.32;;;;;;;;;;5057558;28;20225;-82
2021/05/02 08:18:04;;;;;;;5.10;3.88;;;;;;;;;;5057349;28;20206;-82
2021/05/02 08:20:32;;;;;;;5.15;3.47;;;;;;;;;;5056979;28;20222;-83
2021/05/02 08:22:59;;;;;;;4.18;3.78;;;;;;;;;;5056891;28;20204;-82
2021/05/02 08:25:26;;;;;;;4.78;4.30;;;;;;;;;;5057135;28;20205;-82
2021/05/02 08:27:53;;;;;;;4.57;4.18;;;;;;;;;;5056604;28;20292;-82
2021/05/02 08:30:20;;;;;;;4.00;3.70;;;;;;;;;;5056510;28;20245;-82
2021/05/02 08:32:47;;;;;;;4.45;4.05;;;;;;;;;;5056661;28;20568;-82
2021/05/02 08:35:14;;;;;;;4.45;3.97;;;;;;;;;;5056353;28;20738;-82
2021/05/02 08:37:42;;;;;;;4.10;3.53;;;;;;;;;;5056311;28;20205;-82
2021/05/02 08:40:13;;;;;;;5.15;3.63;;;;;;;;;;5056542;28;20221;-82
2021/05/02 08:42:40;;;;;;;4.10;3.70;;;;;;;;;;5056628;28;20263;-82
2021/05/02 08:45:08;;;;;;;3.72;3.42;;;;;;;;;;5056308;28;20197;-83
2021/05/02 08:47:36;;;;;;;5.25;3.45;;;;;;;;;;5056504;28;20205;-83
2021/05/02 08:50:06;;;;;;;4.10;3.65;;;;;;;;;;5056070;28;20230;-82
2021/05/02 08:52:33;;;;;;;3.67;3.22;;;;;;;;;;5056082;28;20206;-82
2021/05/02 08:55:00;;;;;;;4.32;3.92;;;;;;;;;;5056198;28;20218;-82
2021/05/02 08:57:27;;;;;;;3.90;3.60;;;;;;;;;;5056081;28;20206;-83
2021/05/02 08:59:54;;;;;;;4.50;3.10;;;;;;;;;;5055708;28;20202;-82
2021/05/02 09:02:23;;;;;;;3.85;3.55;;;;;;;;;;5055853;28;20213;-82
2021/05/02 09:04:59;;;;;;;4.68;3.53;;;;;;;;;;5055620;28;20201;-82
2021/05/02 09:07:26;;;;;;;3.97;3.50;;;;;;;;;;5056811;28;20582;-82
2021/05/02 09:09:54;;;;;;;3.63;3.33;;;;;;;;;;5056176;28;20202;-82
2021/05/02 09:12:25;;;;;;;3.47;3.17;;;;;;;;;;5055147;28;20208;-82
2021/05/02 09:14:53;;;;;;;2.97;2.70;;;;;;;;;;5055815;28;20202;-82
2021/05/02 09:17:27;;;;;;;3.30;3.00;;;;;;;;;;5055859;28;20216;-82
2021/05/02 09:19:56;;;;;;;5.40;2.53;;;;;;;;;;5055712;28;20219;-82
2021/05/02 09:22:23;;;;;;;3.05;2.83;;;;;;;;;;5056257;28;20206;-82
2021/05/02 09:25:03;;;;;;;3.83;3.35;;;;;;;;;;5055995;28;20620;-82
2021/05/02 09:27:31;;;;;;;3.42;2.63;;;;;;;;;;5055580;28;20212;-82
2021/05/02 09:30:14;;;;;;;2.92;2.40;;;;;;;;;;5056836;28;20592;-82
2021/05/02 09:32:44;;;;;;;3.30;3.00;;;;;;;;;;5055021;28;20570;-83
2021/05/02 09:35:24;;;;;;;3.40;3.05;;;;;;;;;;5054888;28;20218;-82
2021/05/02 09:37:52;;;;;;;4.15;2.90;;;;;;;;;;5055671;28;20201;-82
2021/05/02 09:40:19;;;;;;;3.22;2.92;;;;;;;;;;5055665;28;20605;-83
2021/05/02 09:42:49;;;;;;;3.15;2.85;;;;;;;;;;5055497;28;20217;-83
2021/05/02 09:45:16;;;;;;;3.53;2.85;;;;;;;;;;5054688;28;20198;-83
2021/05/02 09:47:44;;;;;;;3.22;3.03;;;;;;;;;;5054693;28;20212;-82
2021/05/02 09:50:17;;;;;;;2.95;2.55;;;;;;;;;;5054940;28;20214;-82
2021/05/02 09:52:52;;;;;;;2.78;2.30;;;;;;;;;;5055472;28;20223;-82
2021/05/02 09:55:30;;;;;;;3.97;3.10;;;;;;;;;;5054824;28;20658;-82
2021/05/02 09:58:04;;;;;;;3.88;3.58;;;;;;;;;;5055321;28;20201;-82
2021/05/02 10:00:40;;;;;;;3.38;3.08;;;;;;;;;;5054682;28;20229;-82
2021/05/02 10:03:10;;;;;;;3.70;3.10;;;;;;;;;;5054925;28;20212;-83
2021/05/02 10:05:51;;;;;;;3.15;2.95;;;;;;;;;;5054804;28;20630;-81
2021/05/02 10:08:18;;;;;;;4.10;2.53;;;;;;;;;;5054921;28;20206;-82
2021/05/02 10:10:45;;;;;;;3.22;2.97;;;;;;;;;;5054477;28;20589;-82
2021/05/02 10:13:14;;;;;;;3.70;2.72;;;;;;;;;;5055004;28;20216;-83
2021/05/02 10:15:41;;;;;;;5.75;2.97;;;;;;;;;;5054697;28;20221;-83
2021/05/02 10:18:09;;;;;;;3.40;3.10;;;;;;;;;;5054527;28;20209;-82
2021/05/02 10:20:36;;;;;;;3.35;3.05;;;;;;;;;;5054782;28;20244;-83
2021/05/02 10:23:03;;;;;;;2.95;2.72;;;;;;;;;;5053724;28;20206;-83
2021/05/02 10:25:30;;;;;;;3.00;2.70;;;;;;;;;;5054842;28;20558;-83
2021/05/02 10:27:57;;;;;;;2.92;2.70;;;;;;;;;;5054796;28;20204;-82
2021/05/02 10:30:29;;;;;;;5.63;3.70;;;;;;;;;;5054092;28;20225;-82
2021/05/02 10:33:07;;;;;;;2.90;2.70;;;;;;;;;;5054734;28;20204;-82
2021/05/02 10:35:46;;;;;;;3.33;3.05;;;;;;;;;;5053798;28;20228;-83
2021/05/02 10:38:15;;;;;;;2.83;2.63;;;;;;;;;;5054278;28;20205;-83
2021/05/02 10:40:44;;;;;;;2.70;2.50;;;;;;;;;;5054274;28;20221;-82
2021/05/02 10:43:29;;;;;;;2.72;2.53;;;;;;;;;;5054280;28;20555;-82
2021/05/02 10:45:56;;;;;;;3.10;2.80;;;;;;;;;;5054121;28;20224;-82
2021/05/02 10:48:38;;;;;;;2.67;2.47;;;;;;;;;;5053617;28;20202;-82
2021/05/02 10:51:29;;;;;;;3.25;2.78;;;;;;;;;;5054413;28;20217;-82
2021/05/02 10:54:16;;;;;;;7.85;4.50;;;;;;;;;;5054358;28;20548;-82
2021/05/02 10:56:55;;;;;;;4.68;2.92;;;;;;;;;;5052914;28;21014;-81
2021/05/02 10:59:25;;;;;;;5.75;4.40;;;;;;;;;;5054306;28;20208;-83
2021/05/02 11:01:53;;;;;;;3.45;3.08;;;;;;;;;;5054287;28;20249;-82
2021/05/02 11:04:21;;;;;;;3.78;3.35;;;;;;;;;;5054134;28;20270;-83
2021/05/02 11:06:55;;;;;;;4.70;3.58;;;;;;;;;;5053174;28;20194;-83
2021/05/02 11:09:24;;;;;;;4.88;3.47;;;;;;;;;;5054061;28;20201;-82
2021/05/02 11:11:53;;;;;;;4.38;3.50;;;;;;;;;;5053467;28;20233;-82
2021/05/02 11:14:33;;;;;;;3.17;2.85;;;;;;;;;;5053418;28;20214;-83
2021/05/02 11:17:23;;;;;;;4.28;3.88;;;;;;;;;;5053699;28;20252;-83
2021/05/02 11:19:53;;;;;;;4.20;3.42;;;;;;;;;;5054686;28;20194;-83
2021/05/02 11:22:21;;;;;;;3.38;3.08;;;;;;;;;;5054398;28;20194;-82
2021/05/02 11:24:59;;;;;;;3.95;3.45;;;;;;;;;;5054105;28;20687;-82
2021/05/02 11:27:58;;;;;;;3.75;3.38;;;;;;;;;;5054027;28;20216;-82
2021/05/02 11:30:26;;;;;;;3.40;3.10;;;;;;;;;;5054138;28;20229;-83
2021/05/02 11:32:56;;;;;;;3.15;2.85;;;;;;;;;;5054235;28;20216;-83
2021/05/02 11:35:52;;;;;;;4.70;3.30;;;;;;;;;;5055767;28;20502;-83
2021/05/02 11:38:36;;;;;;;4.43;3.17;;;;;;;;;;5057587;28;20212;-83
2021/05/02 11:41:07;;;;;;;4.03;3.58;;;;;;;;;;5056908;28;20232;-83
2021/05/02 11:43:34;;;;;;;3.97;3.67;;;;;;;;;;5057559;28;20668;-82
2021/05/02 11:46:02;;;;;;;3.08;2.80;;;;;;;;;;5057561;28;20248;-82
2021/05/02 11:48:32;;;;;;;5.13;3.67;;;;;;;;;;5057641;28;20197;-82
2021/05/02 11:51:01;;;;;;;3.47;3.17;;;;;;;;;;5057483;28;20222;-82
2021/05/02 11:53:33;;;;;;;3.25;2.95;;;;;;;;;;5057886;28;20212;-83
2021/05/02 11:56:00;;;;;;;4.07;2.78;;;;;;;;;;5056612;28;20222;-83
2021/05/02 11:58:27;;;;;;;3.05;2.75;;;;;;;;;;5057315;28;20201;-83
2021/05/02 12:00:55;;;;;;;3.40;3.10;;;;;;;;;;5056384;28;20233;-82
2021/05/02 12:03:37;;;;;;;3.47;3.15;;;;;;;;;;5056824;28;20208;-82
2021/05/02 12:06:05;;;;;;;2.35;2.13;;;;;;;;;;5057208;28;20197;-83
2021/05/02 12:08:32;;;;;;;3.08;2.47;;;;;;;;;;5057618;28;20197;-82
2021/05/02 12:11:01;;;;;;;2.40;2.20;;;;;;;;;;5057454;28;20243;-83
2021/05/02 12:13:30;;;;;;;3.28;2.13;;;;;;;;;;5056890;28;20574;-82
2021/05/02 12:16:12;;;;;;;3.15;2.20;;;;;;;;;;5056240;28;20214;-82
2021/05/02 12:18:45;;;;;;;2.20;2.05;;;;;;;;;;5057436;28;20212;-82
2021/05/02 12:21:22;;;;;;;5.50;2.47;;;;;;;;;;5057237;28;20279;-82
2021/05/02 12:23:49;;;;;;;2.70;2.50;;;;;;;;;;5057473;28;20201;-83
2021/05/02 12:26:18;;;;;;;3.50;1.92;;;;;;;;;;5055674;28;20206;-82
2021/05/02 12:28:46;;;;;;;3.53;2.30;;;;;;;;;;5057708;28;20219;-82
2021/05/02 12:31:15;;;;;;;3.03;1.98;;;;;;;;;;5056877;28;20217;-83
2021/05/02 12:33:43;;;;;;;2.40;1.70;;;;;;;;;;5056716;28;20202;-82
2021/05/02 12:36:12;;;;;;;3.92;2.05;;;;;;;;;;5055479;28;20230;-83
2021/05/02 12:38:41;;;;;;;3.72;2.35;;;;;;;;;;5056218;28;20201;-82
2021/05/02 12:41:17;;;;;;;2.33;2.08;;;;;;;;;;5056753;28;20225;-83
2021/05/02 12:43:48;;;;;;;2.08;1.77;;;;;;;;;;5056642;28;20655;-82
2021/05/02 12:46:40;;;;;;;1.73;1.45;;;;;;;;;;5055708;28;20194;-83
2021/05/02 12:49:11;;;;;;;1.67;1.50;;;;;;;;;;5056006;28;20204;-82
2021/05/02 12:51:38;;;;;;;2.92;2.08;;;;;;;;;;5056005;28;20221;-83
2021/05/02 12:54:10;;;;;;;2.80;2.35;;;;;;;;;;5056542;28;20193;-82
2021/05/02 12:56:38;;;;;;;1.77;1.67;;;;;;;;;;5055311;28;20226;-83
2021/05/02 12:59:39;;;;;;;2.58;2.38;;;;;;;;;;5056873;28;20255;-82
2021/05/02 13:02:13;;;;;;;3.03;1.80;;;;;;;;;;5055780;28;20240;-83
2021/05/02 13:05:00;;;;;;;4.30;2.20;;;;;;;;;;5056486;28;20286;-83
2021/05/02 13:07:38;;;;;;;3.15;1.45;;;;;;;;;;5056781;28;20194;-82
2021/05/02 13:10:10;;;;;;;1.70;1.60;;;;;;;;;;5055916;28;20193;-83
2021/05/02 13:12:48;;;;;;;4.90;1.65;;;;;;;;;;5055852;28;20671;-83
2021/05/02 13:15:17;;;;;;;2.03;1.77;;;;;;;;;;5055672;28;20277;-83
2021/05/02 13:18:04;;;;;;;4.18;2.17;;;;;;;;;;5055903;28;20233;-83
2021/05/02 13:20:53;;;;;;;4.00;2.15;;;;;;;;;;5055366;28;20252;-83
2021/05/02 13:23:35;;;;;;;2.15;1.77;;;;;;;;;;5056087;28;20209;-85
2021/05/02 13:26:19;;;;;;;4.15;2.05;;;;;;;;;;5055263;28;20205;-81
2021/05/02 13:29:12;;;;;;;2.20;2.00;;;;;;;;;;5055581;28;20584;-81
2021/05/02 13:31:52;;;;;;;3.55;2.15;;;;;;;;;;5055969;28;20224;-82
2021/05/02 13:34:22;;;;;;;1.90;1.80;;;;;;;;;;5055431;28;20464;-82
2021/05/02 13:36:51;;;;;;;2.67;1.98;;;;;;;;;;5055576;28;20217;-82
2021/05/02 13:39:21;;;;;;;3.70;1.60;;;;;;;;;;5055175;28;20267;-82
2021/05/02 13:41:49;;;;;;;4.55;2.22;;;;;;;;;;5055996;28;20515;-82
2021/05/02 13:44:18;;;;;;;2.30;2.10;;;;;;;;;;5055162;28;20206;-82
2021/05/02 13:46:47;;;;;;;2.08;1.80;;;;;;;;;;5055181;28;20218;-82
2021/05/02 13:49:14;;;;;;;2.35;1.63;;;;;;;;;;5055093;28;20201;-83
2021/05/02 13:51:43;;;;;;;1.92;1.55;;;;;;;;;;5055630;28;20267;-82
2021/05/02 13:54:12;;;;;;;3.75;2.92;;;;;;;;;;5055138;28;20243;-82
2021/05/02 13:56:39;;;;;;;3.03;2.05;;;;;;;;;;5054963;28;20264;-82
2021/05/02 13:59:06;;;;;;;1.70;1.60;;;;;;;;;;5054884;28;20202;-82
2021/05/02 14:01:34;;;;;;;1.77;1.67;;;;;;;;;;5055222;28;20256;-82
2021/05/02 14:04:01;;;;;;;2.03;1.88;;;;;;;;;;5055153;28;20208;-82
2021/05/02 14:06:29;;;;;;;3.17;1.73;;;;;;;;;;5055111;28;20248;-82
2021/05/02 14:08:56;;;;;;;1.73;1.50;;;;;;;;;;5055431;28;20271;-82
2021/05/02 14:11:26;;;;;;;4.72;1.80;;;;;;;;;;5055339;28;20612;-81
2021/05/02 14:13:53;;;;;;;2.97;1.80;;;;;;;;;;5054617;28;20718;-82
2021/05/02 14:16:21;;;;;;;2.05;1.85;;;;;;;;;;5054875;28;20236;-81
2021/05/02 14:18:47;;;;;;;2.47;1.85;;;;;;;;;;5054757;28;20198;-82
2021/05/02 14:21:14;;;;;;;4.00;2.75;;;;;;;;;;5055018;28;20244;-82
2021/05/02 14:23:42;;;;;;;2.45;2.08;;;;;;;;;;5054767;28;20252;-81
2021/05/02 14:26:08;;;;;;;3.88;2.20;;;;;;;;;;5054421;28;20182;-82
2021/05/02 14:28:37;;;;;;;5.55;1.95;;;;;;;;;;5054904;28;20206;-82
2021/05/02 14:31:04;;;;;;;2.50;2.30;;;;;;;;;;5055249;28;20222;-82
2021/05/02 14:33:31;;;;;;;2.75;2.03;;;;;;;;;;5054564;28;20210;-82
2021/05/02 14:35:58;;;;;;;2.35;2.15;;;;;;;;;;5054065;28;20667;-81
2021/05/02 14:38:25;;;;;;;1.60;1.50;;;;;;;;;;5054181;28;20600;-81
2021/05/02 14:40:53;;;;;;;3.63;2.20;;;;;;;;;;5054726;28;20222;-81
2021/05/02 14:43:20;;;;;;;3.95;2.83;;;;;;;;;;5054393;28;20604;-82
2021/05/02 14:45:47;;;;;;;3.58;2.97;;;;;;;;;;5054114;28;20209;-82
2021/05/02 14:48:14;;;;;;;2.25;2.05;;;;;;;;;;5053495;28;20210;-82
2021/05/02 14:50:41;;;;;;;1.60;1.50;;;;;;;;;;5053992;28;20708;-82
2021/05/02 14:53:09;;;;;;;2.65;2.00;;;;;;;;;;5054173;28;20209;-81